createdAt,value
2022-12-11T00:00:51.025Z,59.05
2022-12-11T00:03:18.547Z,58.35
2022-12-11T00:05:46.338Z,59.83
2022-12-11T00:08:14.076Z,61.38
2022-12-11T00:10:48.585Z,62.70
2022-12-11T00:13:15.445Z,58.53
2022-12-11T00:15:42.214Z,62.03
2022-12-11T00:18:13.761Z,67.50
2022-12-11T00:20:41.102Z,60.55
2022-12-11T00:23:07.938Z,61.40
2022-12-11T00:25:34.834Z,60.20
2022-12-11T00:28:01.667Z,62.58
2022-12-11T00:30:28.521Z,59.88
2022-12-11T00:32:55.354Z,57.08
2022-12-11T00:35:22.366Z,60.90
2022-12-11T00:37:49.187Z,62.33
2022-12-11T00:40:16.163Z,55.15
2022-12-11T00:42:43.043Z,67.30
2022-12-11T00:45:10.716Z,56.70
2022-12-11T00:47:37.763Z,54.80
2022-12-11T00:50:05.109Z,53.95
2022-12-11T00:52:31.906Z,51.28
2022-12-11T00:54:58.755Z,49.35
2022-12-11T00:57:25.574Z,50.63
2022-12-11T00:59:52.536Z,59.47
2022-12-11T01:02:19.597Z,50.55
2022-12-11T01:04:46.502Z,53.13
2022-12-11T01:07:13.370Z,47.47
2022-12-11T01:09:58.928Z,49.22
2022-12-11T01:12:28.464Z,47.97
2022-12-11T01:14:55.380Z,53.35
2022-12-11T01:17:22.253Z,48.85
2022-12-11T01:19:49.097Z,53.58
2022-12-11T01:22:15.934Z,56.67
2022-12-11T01:24:42.915Z,49.30
2022-12-11T01:27:09.789Z,49.40
2022-12-11T01:29:36.639Z,49.55
2022-12-11T01:32:03.634Z,53.53
2022-12-11T01:34:31.592Z,51.92
2022-12-11T01:36:58.439Z,55.10
2022-12-11T01:39:25.409Z,52.83
2022-12-11T01:42:00.619Z,53.55
2022-12-11T01:44:27.498Z,53.35
2022-12-11T01:46:54.529Z,51.38
2022-12-11T01:49:25.888Z,51.17
2022-12-11T01:51:59.612Z,56.97
2022-12-11T01:54:28.920Z,50.65
2022-12-11T01:57:03.195Z,54.53
2022-12-11T01:59:34.079Z,53.40
2022-12-11T02:02:16.894Z,50.58
2022-12-11T02:04:45.301Z,53.92
2022-12-11T02:07:12.489Z,49.63
2022-12-11T02:09:43.277Z,49.90
2022-12-11T02:12:48.452Z,46.70
2022-12-11T02:15:37.191Z,44.78
2022-12-11T02:18:31.180Z,44.45
2022-12-11T02:21:05.713Z,40.13
2022-12-11T02:24:01.645Z,43.57
2022-12-11T02:26:45.688Z,40.72
2022-12-11T02:29:19.875Z,45.72
2022-12-11T02:32:03.310Z,42.92
2022-12-11T02:34:41.687Z,39.28
2022-12-11T02:37:24.079Z,40.60
2022-12-11T02:39:54.024Z,40.70
2022-12-11T02:42:23.006Z,43.38
2022-12-11T02:44:51.886Z,46.42
2022-12-11T02:47:21.204Z,49.85
2022-12-11T02:49:50.782Z,43.95
2022-12-11T02:52:21.664Z,47.10
2022-12-11T02:54:52.467Z,44.42
2022-12-11T02:57:38.092Z,43.33
2022-12-11T03:00:06.429Z,46.63
2022-12-11T03:02:33.425Z,43.97
2022-12-11T03:05:00.499Z,43.38
2022-12-11T03:07:32.809Z,42.97
2022-12-11T03:09:59.910Z,45.30
2022-12-11T03:12:32.640Z,43.70
2022-12-11T03:15:02.067Z,44.88
2022-12-11T03:17:43.416Z,46.42
2022-12-11T03:20:41.068Z,45.28
2022-12-11T03:23:13.714Z,45.35
2022-12-11T03:26:03.966Z,42.13
2022-12-11T03:28:53.946Z,48.05
2022-12-11T03:31:36.217Z,46.42
2022-12-11T03:34:10.770Z,43.20
2022-12-11T03:36:39.201Z,47.13
2022-12-11T03:39:15.542Z,49.63
2022-12-11T03:41:45.831Z,46.50
2022-12-11T03:44:13.872Z,52.03
2022-12-11T03:46:44.244Z,52.78
2022-12-11T03:49:26.696Z,51.58
2022-12-11T03:51:56.655Z,55.22
2022-12-11T03:54:24.400Z,51.45
2022-12-11T03:56:55.476Z,54.92
2022-12-11T03:59:22.667Z,51.33
2022-12-11T04:01:50.903Z,53.22
2022-12-11T04:04:17.893Z,51.60
2022-12-11T04:06:44.781Z,51.60
2022-12-11T04:09:11.971Z,53.17
2022-12-11T04:11:39.558Z,49.58
2022-12-11T04:14:27.907Z,52.13
2022-12-11T04:16:55.340Z,47.90
2022-12-11T04:19:43.414Z,53.75
2022-12-11T04:22:15.617Z,53.88
2022-12-11T04:24:42.540Z,46.22
2022-12-11T04:27:09.692Z,57.83
2022-12-11T04:29:36.633Z,58.33
2022-12-11T04:32:03.525Z,54.83
2022-12-11T04:34:30.779Z,55.50
2022-12-11T04:36:57.601Z,58.00
2022-12-11T04:39:24.491Z,58.80
2022-12-11T04:41:51.367Z,61.58
2022-12-11T04:44:18.274Z,56.63
2022-12-11T04:46:45.141Z,60.90
2022-12-11T04:49:12.615Z,56.90
2022-12-11T04:51:39.439Z,53.35
2022-12-11T04:54:06.307Z,59.28
2022-12-11T04:56:33.191Z,56.03
2022-12-11T04:59:00.888Z,56.42
2022-12-11T05:01:27.778Z,61.20
2022-12-11T05:03:54.697Z,55.13
2022-12-11T05:06:21.552Z,63.05
2022-12-11T05:08:48.491Z,62.00
2022-12-11T05:11:16.135Z,60.58
2022-12-11T05:13:44.006Z,56.72
2022-12-11T05:16:15.108Z,58.33
2022-12-11T05:18:42.617Z,56.65
2022-12-11T05:21:14.109Z,54.63
2022-12-11T05:23:41.712Z,57.47
2022-12-11T05:26:13.117Z,60.03
2022-12-11T05:28:40.734Z,59.40
2022-12-11T05:31:17.305Z,55.53
2022-12-11T05:33:45.686Z,58.10
2022-12-11T05:36:19.115Z,59.08
2022-12-11T05:38:46.337Z,61.25
2022-12-11T05:41:15.826Z,61.25
2022-12-11T05:43:42.963Z,61.42
2022-12-11T05:46:36.065Z,62.25
2022-12-11T05:49:03.522Z,64.68
2022-12-11T05:51:30.772Z,62.92
2022-12-11T05:53:58.115Z,64.47
2022-12-11T05:56:31.280Z,62.63
2022-12-11T05:58:59.576Z,57.38
2022-12-11T06:01:26.439Z,63.05
2022-12-11T06:03:54.838Z,62.45
2022-12-11T06:06:21.931Z,55.60
2022-12-11T06:08:51.261Z,58.33
2022-12-11T06:11:23.776Z,55.45
2022-12-11T06:13:52.305Z,61.40
2022-12-11T06:16:19.496Z,61.03
2022-12-11T06:18:47.034Z,58.72
2022-12-11T06:21:25.893Z,56.13
2022-12-11T06:23:54.878Z,61.40
2022-12-11T06:26:22.211Z,58.53
2022-12-11T06:28:50.253Z,58.38
2022-12-11T06:31:17.955Z,56.83
2022-12-11T06:33:45.028Z,56.20
2022-12-11T06:36:15.096Z,55.28
2022-12-11T06:38:42.474Z,53.78
2022-12-11T06:41:09.683Z,59.80
2022-12-11T06:43:38.680Z,52.90
2022-12-11T06:46:07.521Z,54.88
2022-12-11T06:48:35.091Z,58.22
2022-12-11T06:51:10.290Z,50.33
2022-12-11T06:53:37.444Z,54.58
2022-12-11T06:56:07.006Z,51.10
2022-12-11T06:58:35.632Z,54.30
2022-12-11T07:01:03.621Z,57.42
2022-12-11T07:03:30.632Z,56.33
2022-12-11T07:06:03.757Z,53.05
2022-12-11T07:08:31.986Z,56.78
2022-12-11T07:11:07.559Z,60.97
2022-12-11T07:13:35.620Z,54.65
2022-12-11T07:16:04.635Z,57.75
2022-12-11T07:18:34.841Z,57.40
2022-12-11T07:21:01.702Z,53.67
2022-12-11T07:23:28.774Z,53.65
2022-12-11T07:25:56.506Z,56.60
2022-12-11T07:28:23.968Z,55.42
2022-12-11T07:30:50.918Z,53.47
2022-12-11T07:33:17.792Z,57.88
2022-12-11T07:35:45.059Z,56.85
2022-12-11T07:38:12.041Z,59.63
2022-12-11T07:40:39.022Z,53.25
2022-12-11T07:43:05.920Z,52.67
2022-12-11T07:45:32.911Z,54.30
2022-12-11T07:47:59.770Z,57.60
2022-12-11T07:50:26.612Z,54.72
2022-12-11T07:52:53.734Z,54.22
2022-12-11T07:55:20.679Z,55.53
2022-12-11T07:57:47.529Z,55.13
2022-12-11T08:00:14.739Z,57.45
2022-12-11T08:02:41.652Z,56.45
2022-12-11T08:05:09.363Z,54.92
2022-12-11T08:07:36.547Z,54.85
2022-12-11T08:10:05.453Z,49.75
2022-12-11T08:12:34.603Z,53.67
2022-12-11T08:15:01.717Z,55.53
2022-12-11T08:17:31.779Z,47.85
2022-12-11T08:19:59.683Z,49.45
2022-12-11T08:22:26.705Z,49.97
2022-12-11T08:24:54.338Z,50.47
2022-12-11T08:27:21.175Z,49.45
2022-12-11T08:29:48.128Z,51.95
2022-12-11T08:32:17.039Z,54.55
2022-12-11T08:34:44.249Z,52.03
2022-12-11T08:37:11.183Z,52.67
2022-12-11T08:39:38.044Z,62.30
2022-12-11T08:42:05.244Z,63.55
2022-12-11T08:44:32.115Z,51.88
2022-12-11T08:46:58.985Z,52.70
2022-12-11T08:49:27.602Z,60.90
2022-12-11T08:51:58.726Z,56.13
2022-12-11T08:54:25.659Z,51.10
2022-12-11T08:56:57.824Z,53.60
2022-12-11T08:59:25.790Z,54.20
2022-12-11T09:01:52.801Z,61.40
2022-12-11T09:04:19.731Z,52.35
2022-12-11T09:06:46.585Z,58.88
2022-12-11T09:09:13.458Z,56.25
2022-12-11T09:11:40.685Z,54.55
2022-12-11T09:14:08.458Z,52.90
2022-12-11T09:16:39.665Z,53.42
2022-12-11T09:19:09.052Z,55.90
2022-12-11T09:21:35.924Z,53.47
2022-12-11T09:24:02.850Z,54.58
2022-12-11T09:26:30.516Z,53.53
2022-12-11T09:28:58.273Z,48.80
2022-12-11T09:31:31.370Z,49.70
2022-12-11T09:34:04.075Z,46.13
2022-12-11T09:36:31.213Z,52.40
2022-12-11T09:39:05.992Z,53.33
2022-12-11T09:42:11.210Z,50.03
2022-12-11T09:44:51.490Z,52.78
2022-12-11T09:47:44.281Z,56.25
2022-12-11T09:50:11.332Z,58.45
2022-12-11T09:52:41.863Z,51.72
2022-12-11T09:55:24.158Z,57.65
2022-12-11T09:58:18.905Z,52.90
2022-12-11T10:01:05.919Z,50.92
2022-12-11T10:03:54.500Z,56.05
2022-12-11T10:06:30.394Z,56.47
2022-12-11T10:09:06.378Z,56.38
2022-12-11T10:12:15.249Z,56.47
2022-12-11T10:14:51.065Z,52.58
2022-12-11T10:17:27.716Z,59.50
2022-12-11T10:19:57.779Z,53.30
2022-12-11T10:22:30.378Z,56.60
2022-12-11T10:25:16.292Z,56.78
2022-12-11T10:27:44.761Z,54.50
2022-12-11T10:30:27.537Z,55.95
2022-12-11T10:33:11.534Z,55.50
2022-12-11T10:35:47.310Z,54.17
2022-12-11T10:38:14.180Z,54.47
2022-12-11T10:40:47.452Z,55.35
2022-12-11T10:43:14.495Z,58.92
2022-12-11T10:45:54.261Z,55.03
2022-12-11T10:48:22.058Z,57.65
2022-12-11T10:51:05.948Z,58.65
2022-12-11T10:53:34.623Z,54.72
2022-12-11T10:56:02.255Z,55.72
2022-12-11T10:58:33.940Z,57.05
2022-12-11T11:01:06.099Z,57.75
2022-12-11T11:03:34.860Z,60.88
2022-12-11T11:06:15.845Z,56.95
2022-12-11T11:08:46.119Z,56.28
2022-12-11T11:11:27.427Z,52.28
2022-12-11T11:14:12.369Z,56.17
2022-12-11T11:16:41.349Z,52.40
2022-12-11T11:19:30.329Z,48.70
2022-12-11T11:22:01.868Z,48.80
2022-12-11T11:24:51.903Z,48.67
2022-12-11T11:27:27.490Z,39.60
2022-12-11T11:29:59.529Z,45.22
2022-12-11T11:32:38.837Z,42.78
2022-12-11T11:35:12.050Z,42.17
2022-12-11T11:37:44.597Z,43.50
2022-12-11T11:40:31.246Z,43.05
2022-12-11T11:43:29.061Z,43.83
2022-12-11T11:46:22.498Z,43.83
2022-12-11T11:49:31.109Z,43.70
2022-12-11T11:52:02.039Z,50.03
2022-12-11T11:54:37.202Z,53.85
2022-12-11T11:57:29.289Z,61.17
2022-12-11T12:00:09.609Z,60.42
2022-12-11T12:02:41.823Z,59.20
2022-12-11T12:05:17.486Z,59.55
2022-12-11T12:07:47.231Z,61.08
2022-12-11T12:10:34.947Z,58.88
2022-12-11T12:13:47.537Z,58.20
2022-12-11T12:16:17.816Z,56.45
2022-12-11T12:19:03.757Z,61.00
2022-12-11T12:21:35.547Z,58.63
2022-12-11T12:24:29.142Z,58.15
2022-12-11T12:27:17.618Z,60.17
2022-12-11T12:30:16.141Z,72.30
2022-12-11T12:33:24.458Z,69.57
2022-12-11T12:36:14.852Z,72.18
2022-12-11T12:38:57.931Z,60.55
2022-12-11T12:41:33.665Z,65.35
2022-12-11T12:44:39.944Z,53.53
2022-12-11T12:47:14.925Z,58.05
2022-12-11T12:49:45.822Z,57.63
2022-12-11T12:52:19.472Z,62.17
2022-12-11T12:55:09.829Z,63.10
2022-12-11T12:57:38.358Z,61.95
2022-12-11T13:00:13.147Z,54.72
2022-12-11T13:02:50.913Z,47.95
2022-12-11T13:05:28.298Z,47.10
2022-12-11T13:08:01.475Z,47.10
2022-12-11T13:10:51.131Z,49.95
2022-12-11T13:13:38.400Z,41.50
2022-12-11T13:16:25.704Z,42.75
2022-12-11T13:18:53.590Z,40.58
2022-12-11T13:21:34.640Z,43.53
2022-12-11T13:24:23.946Z,42.83
2022-12-11T13:26:51.376Z,42.67
2022-12-11T13:29:37.492Z,40.83
2022-12-11T13:32:10.484Z,48.08
2022-12-11T13:34:41.131Z,41.75
2022-12-11T13:37:24.851Z,43.97
2022-12-11T13:39:52.816Z,42.60
2022-12-11T13:42:34.184Z,47.03
2022-12-11T13:45:01.894Z,42.28
2022-12-11T13:47:31.478Z,47.80
2022-12-11T13:50:20.789Z,41.20
2022-12-11T13:52:55.525Z,42.40
2022-12-11T13:55:32.606Z,45.13
2022-12-11T13:58:00.025Z,38.75
2022-12-11T14:00:32.744Z,45.35
2022-12-11T14:03:05.253Z,42.45
2022-12-11T14:05:33.551Z,45.30
2022-12-11T14:08:06.894Z,48.13
2022-12-11T14:10:33.894Z,49.55
2022-12-11T14:13:03.958Z,42.30
2022-12-11T14:15:32.967Z,46.00
2022-12-11T14:18:00.752Z,40.08
2022-12-11T14:20:31.076Z,42.67
2022-12-11T14:23:18.833Z,41.35
2022-12-11T14:26:01.198Z,41.70
2022-12-11T14:28:35.798Z,41.17
2022-12-11T14:31:04.949Z,45.50
2022-12-11T14:33:37.135Z,49.50
2022-12-11T14:36:05.785Z,42.85
2022-12-11T14:38:37.116Z,49.03
2022-12-11T14:41:12.642Z,45.28
2022-12-11T14:43:45.621Z,44.17
2022-12-11T14:46:20.392Z,46.88
2022-12-11T14:49:00.420Z,44.13
2022-12-11T14:51:34.270Z,48.00
2022-12-11T14:54:03.047Z,46.97
2022-12-11T14:56:30.779Z,46.53
2022-12-11T14:59:05.214Z,47.08
2022-12-11T15:01:37.100Z,42.50
2022-12-11T15:04:24.795Z,44.03
2022-12-11T15:06:52.389Z,43.10
2022-12-11T15:09:25.191Z,42.58
2022-12-11T15:11:53.869Z,43.28
2022-12-11T15:14:24.272Z,42.75
2022-12-11T15:16:53.905Z,37.85
2022-12-11T15:19:31.606Z,34.40
2022-12-11T15:22:04.644Z,31.42
2022-12-11T15:24:41.641Z,33.50
2022-12-11T15:27:33.475Z,35.80
2022-12-11T15:30:00.391Z,33.25
2022-12-11T15:32:27.425Z,32.28
2022-12-11T15:34:59.718Z,31.33
2022-12-11T15:37:33.380Z,35.30
2022-12-11T15:40:02.031Z,34.15
2022-12-11T15:42:37.273Z,32.60
2022-12-11T15:45:08.234Z,32.70
2022-12-11T15:47:35.050Z,32.10
2022-12-11T15:50:17.464Z,34.00
2022-12-11T15:52:46.501Z,33.95
2022-12-11T15:55:14.270Z,34.08
2022-12-11T15:57:49.271Z,36.33
2022-12-11T16:00:18.805Z,29.70
2022-12-11T16:02:46.240Z,34.72
2022-12-11T16:05:14.563Z,37.85
2022-12-11T16:07:41.948Z,37.95
2022-12-11T16:10:15.385Z,42.13
2022-12-11T16:12:43.372Z,40.45
2022-12-11T16:15:21.473Z,41.45
2022-12-11T16:17:50.309Z,40.20
2022-12-11T16:20:17.727Z,47.38
2022-12-11T16:22:44.724Z,44.95
2022-12-11T16:25:11.971Z,44.60
2022-12-11T16:27:39.262Z,50.15
2022-12-11T16:30:06.773Z,47.70
2022-12-11T16:32:33.927Z,53.15
2022-12-11T16:35:01.166Z,54.22
2022-12-11T16:37:28.153Z,54.10
2022-12-11T16:39:55.082Z,46.58
2022-12-11T16:42:21.950Z,56.80
2022-12-11T16:44:49.084Z,50.13
2022-12-11T16:47:16.067Z,48.88
2022-12-11T16:49:45.731Z,51.58
2022-12-11T16:52:15.279Z,53.00
2022-12-11T16:54:44.512Z,50.90
2022-12-11T16:57:11.301Z,44.58
2022-12-11T16:59:38.715Z,44.50
2022-12-11T17:02:06.489Z,43.65
2022-12-11T17:04:33.409Z,41.30
2022-12-11T17:07:00.200Z,41.90
2022-12-11T17:09:27.063Z,43.88
2022-12-11T17:11:54.275Z,42.03
2022-12-11T17:14:21.156Z,43.05
2022-12-11T17:16:48.239Z,45.30
2022-12-11T17:19:15.714Z,44.50
2022-12-11T17:21:47.018Z,49.45
2022-12-11T17:24:18.027Z,44.55
2022-12-11T17:26:44.857Z,43.45
2022-12-11T17:29:13.274Z,42.90
2022-12-11T17:31:40.741Z,40.17
2022-12-11T17:34:07.766Z,40.15
2022-12-11T17:36:34.834Z,38.55
2022-12-11T17:39:03.397Z,42.78
2022-12-11T17:41:30.312Z,51.58
2022-12-11T17:43:57.170Z,42.00
2022-12-11T17:46:24.188Z,45.67
2022-12-11T17:48:51.233Z,44.47
2022-12-11T17:51:24.008Z,45.83
2022-12-11T17:53:52.776Z,46.55
2022-12-11T17:56:19.642Z,43.97
2022-12-11T17:58:46.626Z,48.50
2022-12-11T18:01:13.627Z,39.60
2022-12-11T18:03:41.089Z,34.78
2022-12-11T18:06:13.732Z,37.33
2022-12-11T18:08:41.544Z,34.70
2022-12-11T18:11:12.055Z,33.90
2022-12-11T18:13:39.393Z,35.67
2022-12-11T18:16:10.209Z,37.88
2022-12-11T18:18:38.060Z,37.75
2022-12-11T18:21:05.502Z,36.88
2022-12-11T18:23:32.952Z,36.85
2022-12-11T18:26:00.361Z,36.35
2022-12-11T18:28:27.793Z,34.90
2022-12-11T18:30:54.758Z,37.88
2022-12-11T18:33:21.882Z,39.72
2022-12-11T18:35:50.702Z,37.47
2022-12-11T18:38:17.907Z,37.40
2022-12-11T18:40:45.243Z,42.83
2022-12-11T18:43:12.299Z,39.22
2022-12-11T18:45:45.498Z,33.20
2022-12-11T18:48:12.922Z,33.50
2022-12-11T18:50:45.636Z,31.02
2022-12-11T18:53:13.448Z,34.92
2022-12-11T18:55:45.376Z,29.90
2022-12-11T18:58:14.202Z,31.08
2022-12-11T19:00:42.484Z,26.65
2022-12-11T19:03:10.536Z,28.27
2022-12-11T19:05:42.280Z,34.47
2022-12-11T19:08:10.785Z,42.38
2022-12-11T19:10:46.351Z,39.03
2022-12-11T19:13:14.252Z,29.38
2022-12-11T19:15:42.128Z,36.58
2022-12-11T19:18:09.668Z,42.17
2022-12-11T19:20:48.926Z,35.35
2022-12-11T19:23:18.139Z,35.10
2022-12-11T19:25:47.492Z,33.58
2022-12-11T19:28:15.251Z,34.40
2022-12-11T19:30:44.344Z,34.13
2022-12-11T19:33:12.250Z,32.88
2022-12-11T19:35:39.352Z,40.40
2022-12-11T19:38:06.331Z,33.47
2022-12-11T19:40:33.133Z,38.25
2022-12-11T19:43:00.068Z,34.75
2022-12-11T19:45:27.053Z,31.25
2022-12-11T19:47:53.977Z,33.40
2022-12-11T19:50:20.859Z,32.78
2022-12-11T19:52:47.774Z,36.63
2022-12-11T19:55:15.140Z,36.10
2022-12-11T19:57:42.193Z,31.73
2022-12-11T20:00:09.627Z,33.65
2022-12-11T20:02:39.561Z,36.40
2022-12-11T20:05:07.350Z,36.05
2022-12-11T20:07:34.169Z,35.95
2022-12-11T20:10:01.043Z,31.73
2022-12-11T20:12:28.537Z,31.00
2022-12-11T20:14:55.520Z,33.05
2022-12-11T20:17:22.383Z,33.45
2022-12-11T20:19:49.900Z,34.50
2022-12-11T20:22:16.767Z,36.50
2022-12-11T20:24:43.684Z,37.08
2022-12-11T20:27:12.329Z,36.97
2022-12-11T20:29:39.499Z,33.00
2022-12-11T20:32:07.372Z,31.90
2022-12-11T20:34:34.423Z,32.67
2022-12-11T20:37:01.444Z,38.85
2022-12-11T20:39:29.072Z,38.90
2022-12-11T20:41:56.072Z,38.55
2022-12-11T20:44:23.053Z,33.55
2022-12-11T20:46:50.716Z,36.05
2022-12-11T20:49:17.569Z,34.50
2022-12-11T20:51:44.428Z,38.28
2022-12-11T20:54:12.293Z,35.85
2022-12-11T20:56:39.198Z,34.47
2022-12-11T20:59:06.834Z,36.75
2022-12-11T21:01:34.837Z,37.95
2022-12-11T21:04:01.781Z,37.15
2022-12-11T21:06:32.047Z,37.60
2022-12-11T21:09:00.986Z,35.42
2022-12-11T21:11:28.088Z,33.97
2022-12-11T21:13:55.142Z,36.03
2022-12-11T21:16:22.936Z,34.20
2022-12-11T21:18:50.221Z,38.20
2022-12-11T21:21:17.620Z,35.67
2022-12-11T21:23:44.894Z,37.47
2022-12-11T21:26:12.160Z,37.30
2022-12-11T21:28:39.291Z,34.67
2022-12-11T21:31:09.936Z,36.50
2022-12-11T21:33:36.979Z,35.55
2022-12-11T21:36:06.110Z,34.38
2022-12-11T21:38:33.407Z,36.42
2022-12-11T21:41:10.954Z,35.17
2022-12-11T21:43:43.360Z,39.72
2022-12-11T21:46:27.718Z,34.28
2022-12-11T21:48:54.662Z,34.28
2022-12-11T21:51:32.547Z,38.50
2022-12-11T21:54:05.117Z,35.03
2022-12-11T21:56:32.431Z,36.35
2022-12-11T21:59:01.285Z,35.85
2022-12-11T22:01:40.860Z,35.20
2022-12-11T22:04:10.397Z,36.95
2022-12-11T22:06:37.371Z,35.20
2022-12-11T22:09:05.738Z,35.00
2022-12-11T22:11:34.391Z,35.25
2022-12-11T22:14:01.776Z,34.25
2022-12-11T22:16:29.225Z,37.42
2022-12-11T22:18:56.264Z,33.40
2022-12-11T22:21:23.085Z,34.08
2022-12-11T22:23:49.999Z,39.33
2022-12-11T22:26:20.091Z,33.00
2022-12-11T22:28:47.776Z,33.90
2022-12-11T22:31:16.834Z,34.42
2022-12-11T22:33:44.916Z,34.63
2022-12-11T22:36:12.333Z,36.35
2022-12-11T22:38:39.893Z,32.78
2022-12-11T22:41:21.879Z,32.53
2022-12-11T22:43:49.668Z,33.85
2022-12-11T22:46:17.850Z,36.72
2022-12-11T22:48:44.819Z,34.63
2022-12-11T22:51:11.998Z,32.58
2022-12-11T22:53:38.944Z,35.10
2022-12-11T22:56:07.116Z,33.38
2022-12-11T22:58:34.388Z,35.78
2022-12-11T23:01:01.823Z,33.30
2022-12-11T23:03:28.785Z,31.92
2022-12-11T23:05:55.696Z,37.50
2022-12-11T23:08:22.655Z,32.42
2022-12-11T23:10:49.612Z,31.15
2022-12-11T23:13:16.505Z,28.80
2022-12-11T23:15:43.281Z,36.70
2022-12-11T23:18:10.141Z,37.53
2022-12-11T23:20:36.996Z,30.45
2022-12-11T23:23:03.891Z,34.25
2022-12-11T23:25:30.742Z,31.05
2022-12-11T23:27:57.761Z,31.05
2022-12-11T23:30:24.627Z,35.38
2022-12-11T23:32:51.545Z,33.63
2022-12-11T23:35:18.506Z,36.10
2022-12-11T23:37:45.397Z,33.28
2022-12-11T23:40:14.486Z,33.00
2022-12-11T23:42:41.669Z,34.30
2022-12-11T23:45:08.863Z,34.78
2022-12-11T23:47:35.874Z,36.13
2022-12-11T23:50:02.782Z,36.92
2022-12-11T23:52:29.697Z,36.13
2022-12-11T23:54:56.607Z,33.40
2022-12-11T23:57:24.175Z,34.17
2022-12-11T23:59:51.006Z,36.10
